createdAt,value
2019-04-30T00:01:17.116Z,11.23
2019-04-30T00:04:01.107Z,11.18
2019-04-30T00:06:34.078Z,11.20
2019-04-30T00:08:55.438Z,11.12
2019-04-30T00:11:22.603Z,11.15
2019-04-30T00:13:50.224Z,11.13
2019-04-30T00:16:16.262Z,11.08
2019-04-30T00:18:55.442Z,11.14
2019-04-30T00:21:14.420Z,11.07
2019-04-30T00:23:37.667Z,11.10
2019-04-30T00:26:08.665Z,11.07
2019-04-30T00:28:31.469Z,11.12
2019-04-30T00:30:57.315Z,11.22
2019-04-30T00:33:27.468Z,11.16
2019-04-30T00:35:56.492Z,11.22
2019-04-30T00:38:18.785Z,11.13
2019-04-30T00:40:45.034Z,11.11
2019-04-30T00:43:11.010Z,11.05
2019-04-30T00:45:39.887Z,11.09
2019-04-30T00:48:06.017Z,11.10
2019-04-30T00:50:33.967Z,10.96
2019-04-30T00:52:59.845Z,11.00
2019-04-30T00:55:25.707Z,10.92
2019-04-30T00:57:51.582Z,10.96
2019-04-30T01:00:25.190Z,10.90
2019-04-30T01:02:47.398Z,10.91
2019-04-30T01:05:21.349Z,10.94
2019-04-30T01:07:50.785Z,10.96
2019-04-30T01:10:19.438Z,10.97
2019-04-30T01:12:47.309Z,10.97
2019-04-30T01:15:14.436Z,11.06
2019-04-30T01:17:40.879Z,10.96
2019-04-30T01:20:09.403Z,10.94
2019-04-30T01:22:35.479Z,10.96
2019-04-30T01:25:09.116Z,10.89
2019-04-30T01:27:30.381Z,10.98
2019-04-30T01:29:58.416Z,11.17
2019-04-30T01:32:24.391Z,11.01
2019-04-30T01:34:53.885Z,10.96
2019-04-30T01:37:24.746Z,10.94
2019-04-30T01:39:46.731Z,10.96
2019-04-30T01:42:12.600Z,10.95
2019-04-30T01:44:39.185Z,10.97
2019-04-30T01:47:05.221Z,10.83
2019-04-30T01:49:41.785Z,10.93
2019-04-30T01:52:00.904Z,10.90
2019-04-30T01:54:26.605Z,10.91
2019-04-30T01:57:00.386Z,10.88
2019-04-30T01:59:31.400Z,10.90
2019-04-30T02:01:58.570Z,10.86
2019-04-30T02:04:24.519Z,10.83
2019-04-30T02:06:50.419Z,10.86
2019-04-30T02:09:16.287Z,10.89
2019-04-30T02:11:42.122Z,10.98
2019-04-30T02:14:09.025Z,10.86
2019-04-30T02:16:34.948Z,10.77
2019-04-30T02:19:00.807Z,10.77
2019-04-30T02:21:26.770Z,10.82
2019-04-30T02:23:52.637Z,10.81
2019-04-30T02:26:18.895Z,10.74
2019-04-30T02:28:44.794Z,10.74
2019-04-30T02:31:10.678Z,10.77
2019-04-30T02:33:40.452Z,10.75
2019-04-30T02:36:24.917Z,10.75
2019-04-30T02:38:53.546Z,10.70
2019-04-30T02:41:20.927Z,10.74
2019-04-30T02:43:49.964Z,10.76
2019-04-30T02:46:19.192Z,10.72
2019-04-30T02:48:45.968Z,10.71
2019-04-30T02:51:13.459Z,10.72
2019-04-30T02:53:50.469Z,10.68
2019-04-30T02:56:20.151Z,10.64
2019-04-30T02:58:50.546Z,10.60
2019-04-30T03:01:16.059Z,10.60
2019-04-30T03:03:42.657Z,10.57
2019-04-30T03:06:11.419Z,10.61
2019-04-30T03:08:36.427Z,10.63
2019-04-30T03:11:02.498Z,10.73
2019-04-30T03:13:29.970Z,10.62
2019-04-30T03:15:55.908Z,10.73
2019-04-30T03:18:23.681Z,10.62
2019-04-30T03:20:51.442Z,10.68
2019-04-30T03:23:19.580Z,10.63
2019-04-30T03:25:45.073Z,10.64
2019-04-30T03:28:10.949Z,10.70
2019-04-30T03:30:41.383Z,10.61
2019-04-30T03:33:04.551Z,10.57
2019-04-30T03:35:32.201Z,10.59
2019-04-30T03:37:59.226Z,10.56
2019-04-30T03:40:26.102Z,10.57
2019-04-30T03:42:51.937Z,10.59
2019-04-30T03:45:20.233Z,10.57
2019-04-30T03:47:45.614Z,10.61
2019-04-30T03:50:11.464Z,10.58
2019-04-30T03:52:39.440Z,10.55
2019-04-30T03:55:05.835Z,10.55
2019-04-30T03:57:31.689Z,10.62
2019-04-30T03:59:59.396Z,10.58
2019-04-30T04:02:32.922Z,10.53
2019-04-30T04:05:01.224Z,10.66
2019-04-30T04:07:32.166Z,10.68
2019-04-30T04:10:11.822Z,10.52
2019-04-30T04:12:39.527Z,10.47
2019-04-30T04:15:05.623Z,10.53
2019-04-30T04:17:31.812Z,10.63
2019-04-30T04:19:59.920Z,10.61
2019-04-30T04:22:25.543Z,10.53
2019-04-30T04:24:51.429Z,10.49
2019-04-30T04:27:19.438Z,10.59
2019-04-30T04:29:45.204Z,10.54
2019-04-30T04:32:11.054Z,10.44
2019-04-30T04:34:36.987Z,10.44
2019-04-30T04:37:02.881Z,10.54
2019-04-30T04:39:29.790Z,10.47
2019-04-30T04:41:55.849Z,10.60
2019-04-30T04:44:21.703Z,10.56
2019-04-30T04:46:50.002Z,10.43
2019-04-30T04:49:15.383Z,10.33
2019-04-30T04:51:42.506Z,10.58
2019-04-30T04:54:10.359Z,10.43
2019-04-30T04:56:36.440Z,10.39
2019-04-30T04:59:02.392Z,10.39
2019-04-30T05:01:28.930Z,10.50
2019-04-30T05:03:54.934Z,10.33
2019-04-30T05:06:22.236Z,10.32
2019-04-30T05:08:49.326Z,10.36
2019-04-30T05:11:15.316Z,10.41
2019-04-30T05:13:41.178Z,10.47
2019-04-30T05:16:09.089Z,10.45
2019-04-30T05:18:34.790Z,10.32
2019-04-30T05:21:00.663Z,10.31
2019-04-30T05:23:26.544Z,10.29
2019-04-30T05:25:52.395Z,10.30
2019-04-30T05:28:18.908Z,10.22
2019-04-30T05:30:44.921Z,10.16
2019-04-30T05:33:10.787Z,10.14
2019-04-30T05:35:38.726Z,10.20
2019-04-30T05:38:04.424Z,10.14
2019-04-30T05:40:30.275Z,10.20
2019-04-30T05:42:56.176Z,10.24
2019-04-30T05:45:22.031Z,10.25
2019-04-30T05:47:50.214Z,10.26
2019-04-30T05:50:16.112Z,10.33
2019-04-30T05:52:41.956Z,10.29
2019-04-30T05:55:08.681Z,10.24
2019-04-30T05:57:34.661Z,10.37
2019-04-30T06:00:00.723Z,10.40
2019-04-30T06:02:30.608Z,10.25
2019-04-30T06:04:54.518Z,10.42
2019-04-30T06:07:20.589Z,10.47
2019-04-30T06:09:52.486Z,10.44
2019-04-30T06:12:23.238Z,10.49
2019-04-30T06:15:03.076Z,10.53
2019-04-30T06:17:30.044Z,10.42
2019-04-30T06:19:56.108Z,10.42
2019-04-30T06:22:21.967Z,10.49
2019-04-30T06:24:49.501Z,10.56
2019-04-30T06:27:15.636Z,10.63
2019-04-30T06:29:41.692Z,10.56
2019-04-30T06:32:08.687Z,10.56
2019-04-30T06:34:35.373Z,10.58
2019-04-30T06:37:01.422Z,10.59
2019-04-30T06:39:28.854Z,10.70
2019-04-30T06:42:04.894Z,10.73
2019-04-30T06:44:34.862Z,10.79
2019-04-30T06:46:51.734Z,10.82
2019-04-30T06:49:19.415Z,10.75
2019-04-30T06:51:45.339Z,10.76
2019-04-30T06:54:11.209Z,10.79
2019-04-30T06:56:38.750Z,10.93
2019-04-30T06:59:04.746Z,10.93
2019-04-30T07:01:30.596Z,10.95
2019-04-30T07:03:58.886Z,10.97
2019-04-30T07:06:29.551Z,10.95
2019-04-30T07:08:57.861Z,11.16
2019-04-30T07:11:26.124Z,11.03
2019-04-30T07:13:52.547Z,10.95
2019-04-30T07:16:18.981Z,10.97
2019-04-30T07:18:45.359Z,10.93
2019-04-30T07:21:11.224Z,10.99
2019-04-30T07:23:38.735Z,11.05
2019-04-30T07:26:05.452Z,11.04
2019-04-30T07:28:43.743Z,11.00
2019-04-30T07:31:10.640Z,11.13
2019-04-30T07:33:26.783Z,11.12
2019-04-30T07:35:52.654Z,11.09
2019-04-30T07:38:19.406Z,11.09
2019-04-30T07:40:45.642Z,11.17
2019-04-30T07:43:11.528Z,11.08
2019-04-30T07:45:39.282Z,11.10
2019-04-30T07:48:05.332Z,11.14
2019-04-30T07:50:32.155Z,11.19
2019-04-30T07:53:05.103Z,11.20
2019-04-30T07:55:26.365Z,11.23
2019-04-30T07:57:52.213Z,11.29
2019-04-30T08:00:19.407Z,11.22
2019-04-30T08:02:50.313Z,11.28
2019-04-30T08:05:19.271Z,11.32
2019-04-30T08:07:45.090Z,11.40
2019-04-30T08:10:11.264Z,11.54
2019-04-30T08:12:41.524Z,11.54
2019-04-30T08:15:06.772Z,11.55
2019-04-30T08:17:32.633Z,11.50
2019-04-30T08:19:58.872Z,11.32
2019-04-30T08:22:24.701Z,11.37
2019-04-30T08:24:50.568Z,11.33
2019-04-30T08:27:16.503Z,11.50
2019-04-30T08:29:42.302Z,11.49
2019-04-30T08:32:09.034Z,11.42
2019-04-30T08:34:34.946Z,11.38
2019-04-30T08:37:12.915Z,11.15
2019-04-30T08:39:29.489Z,11.16
2019-04-30T08:41:56.308Z,11.28
2019-04-30T08:44:22.179Z,11.42
2019-04-30T08:46:49.171Z,11.54
2019-04-30T08:49:15.322Z,11.40
2019-04-30T08:51:41.657Z,11.25
2019-04-30T08:54:09.514Z,11.23
2019-04-30T08:56:35.528Z,11.32
2019-04-30T08:59:01.376Z,11.20
2019-04-30T09:01:29.200Z,11.17
2019-04-30T09:03:55.038Z,11.15
2019-04-30T09:06:22.794Z,11.29
2019-04-30T09:08:49.131Z,11.32
2019-04-30T09:11:24.711Z,11.32
2019-04-30T09:13:42.773Z,11.31
2019-04-30T09:16:09.287Z,11.27
2019-04-30T09:18:35.176Z,11.21
2019-04-30T09:21:05.944Z,11.13
2019-04-30T09:23:42.579Z,11.24
2019-04-30T09:25:58.608Z,11.07
2019-04-30T09:28:24.344Z,11.15
2019-04-30T09:30:50.213Z,11.06
2019-04-30T09:33:16.076Z,11.26
2019-04-30T09:35:41.947Z,11.30
2019-04-30T09:38:09.199Z,11.34
2019-04-30T09:40:35.166Z,11.32
2019-04-30T09:43:01.023Z,11.38
2019-04-30T09:45:28.586Z,11.27
2019-04-30T09:47:54.575Z,11.25
2019-04-30T09:50:21.267Z,11.21
2019-04-30T09:52:47.171Z,11.19
2019-04-30T09:55:13.707Z,11.13
2019-04-30T09:57:39.549Z,11.18
2019-04-30T10:00:09.383Z,11.34
2019-04-30T10:02:35.365Z,11.37
2019-04-30T10:05:01.735Z,11.40
2019-04-30T10:07:29.339Z,11.42
2019-04-30T10:09:55.450Z,11.61
2019-04-30T10:12:21.424Z,11.47
2019-04-30T10:14:49.272Z,11.37
2019-04-30T10:17:16.953Z,11.48
2019-04-30T10:19:42.801Z,11.54
2019-04-30T10:22:09.071Z,11.55
2019-04-30T10:24:34.934Z,11.74
2019-04-30T10:27:00.809Z,11.75
2019-04-30T10:29:26.928Z,11.86
2019-04-30T10:31:52.785Z,12.14
2019-04-30T10:34:18.632Z,12.26
2019-04-30T10:36:44.486Z,12.15
2019-04-30T10:39:10.774Z,12.06
2019-04-30T10:41:36.705Z,12.11
2019-04-30T10:44:03.664Z,12.12
2019-04-30T10:46:29.531Z,12.17
2019-04-30T10:48:55.409Z,12.11
2019-04-30T10:51:22.090Z,12.07
2019-04-30T10:53:48.901Z,12.01
2019-04-30T10:56:15.743Z,12.13
2019-04-30T10:58:42.006Z,12.09
2019-04-30T11:01:09.601Z,11.90
2019-04-30T11:03:35.637Z,12.01
2019-04-30T11:06:01.516Z,12.00
2019-04-30T11:08:27.373Z,12.17
2019-04-30T11:10:53.243Z,12.09
2019-04-30T11:13:19.072Z,12.09
2019-04-30T11:15:45.953Z,12.27
2019-04-30T11:18:12.495Z,12.45
2019-04-30T11:20:39.700Z,12.41
2019-04-30T11:23:14.141Z,12.43
2019-04-30T11:25:35.042Z,12.34
2019-04-30T11:28:01.896Z,12.46
2019-04-30T11:30:29.753Z,12.49
2019-04-30T11:32:56.039Z,12.42
2019-04-30T11:35:22.524Z,12.48
2019-04-30T11:37:48.375Z,12.48
2019-04-30T11:40:16.402Z,12.45
2019-04-30T11:42:42.383Z,12.44
2019-04-30T11:45:09.231Z,12.54
2019-04-30T11:47:36.493Z,12.28
2019-04-30T11:50:05.759Z,12.36
2019-04-30T11:52:31.630Z,12.42
2019-04-30T11:54:59.486Z,12.43
2019-04-30T11:57:25.236Z,12.40
2019-04-30T11:59:51.093Z,12.49
2019-04-30T12:02:29.346Z,12.50
2019-04-30T12:04:55.306Z,12.42
2019-04-30T12:07:28.698Z,12.36
2019-04-30T12:10:13.132Z,12.47
2019-04-30T12:12:39.000Z,12.61
2019-04-30T12:15:05.836Z,12.86
2019-04-30T12:17:31.694Z,13.07
2019-04-30T12:19:58.675Z,13.04
2019-04-30T12:22:24.698Z,12.90
2019-04-30T12:25:02.339Z,13.02
2019-04-30T12:27:18.733Z,13.00
2019-04-30T12:29:44.704Z,13.00
2019-04-30T12:32:10.560Z,12.99
2019-04-30T12:34:36.433Z,12.96
2019-04-30T12:37:03.294Z,12.73
2019-04-30T12:39:30.119Z,12.74
2019-04-30T12:41:56.119Z,12.93
2019-04-30T12:44:22.008Z,12.97
2019-04-30T12:46:48.616Z,13.01
2019-04-30T12:49:14.540Z,12.99
2019-04-30T12:51:46.176Z,13.08
2019-04-30T12:54:16.701Z,13.16
2019-04-30T12:56:50.498Z,13.15
2019-04-30T12:59:16.367Z,13.25
2019-04-30T13:01:42.286Z,13.44
2019-04-30T13:04:09.803Z,13.44
2019-04-30T13:06:36.432Z,13.23
2019-04-30T13:09:06.998Z,13.32
2019-04-30T13:11:34.570Z,13.29
2019-04-30T13:14:01.310Z,13.13
2019-04-30T13:16:29.232Z,13.11
2019-04-30T13:18:55.218Z,13.09
2019-04-30T13:21:21.079Z,13.26
2019-04-30T13:23:46.945Z,13.16
2019-04-30T13:26:12.822Z,13.42
2019-04-30T13:28:43.137Z,13.52
2019-04-30T13:31:09.326Z,13.62
2019-04-30T13:33:38.899Z,13.64
2019-04-30T13:36:04.814Z,13.68
2019-04-30T13:38:32.618Z,13.57
2019-04-30T13:41:00.372Z,13.45
2019-04-30T13:43:44.511Z,13.45
2019-04-30T13:46:10.362Z,13.45
2019-04-30T13:48:36.231Z,13.47
2019-04-30T13:51:02.102Z,13.43
2019-04-30T13:53:28.439Z,13.47
2019-04-30T13:55:54.307Z,13.42
2019-04-30T13:58:20.204Z,13.36
2019-04-30T14:00:46.049Z,13.39
2019-04-30T14:03:16.397Z,13.48
2019-04-30T14:05:42.263Z,13.33
2019-04-30T14:08:15.581Z,13.34
2019-04-30T14:10:41.537Z,13.38
2019-04-30T14:13:08.496Z,13.45
2019-04-30T14:15:35.265Z,13.44
2019-04-30T14:18:01.121Z,13.27
2019-04-30T14:20:27.185Z,13.40
2019-04-30T14:22:53.051Z,13.49
2019-04-30T14:25:19.030Z,13.53
2019-04-30T14:27:52.300Z,13.56
2019-04-30T14:30:13.695Z,13.61
2019-04-30T14:32:39.708Z,13.53
2019-04-30T14:35:05.712Z,13.48
2019-04-30T14:37:31.890Z,13.47
2019-04-30T14:39:58.444Z,13.52
2019-04-30T14:42:25.698Z,13.46
2019-04-30T14:44:54.427Z,13.56
2019-04-30T14:47:23.352Z,13.62
2019-04-30T14:50:06.564Z,13.56
2019-04-30T14:52:34.313Z,13.51
2019-04-30T14:55:05.116Z,13.54
2019-04-30T14:57:35.745Z,13.59
2019-04-30T15:00:21.051Z,13.56
2019-04-30T15:03:09.356Z,13.54
2019-04-30T15:05:40.612Z,13.45
2019-04-30T15:08:03.273Z,13.52
2019-04-30T15:10:29.109Z,13.34
2019-04-30T15:12:58.153Z,13.36
2019-04-30T15:15:24.012Z,13.31
2019-04-30T15:17:49.887Z,13.22
2019-04-30T15:20:16.273Z,13.14
2019-04-30T15:22:46.573Z,13.23
2019-04-30T15:25:12.943Z,13.30
2019-04-30T15:27:45.032Z,13.37
2019-04-30T15:30:07.162Z,13.62
2019-04-30T15:32:34.925Z,14.12
2019-04-30T15:35:00.772Z,13.98
2019-04-30T15:37:28.569Z,14.02
2019-04-30T15:39:54.402Z,14.21
2019-04-30T15:42:20.764Z,14.15
2019-04-30T15:44:46.744Z,14.30
2019-04-30T15:47:12.689Z,14.38
2019-04-30T15:49:38.649Z,14.10
2019-04-30T15:52:04.930Z,14.13
2019-04-30T15:54:30.785Z,14.29
2019-04-30T15:57:00.250Z,14.32
2019-04-30T15:59:31.889Z,14.30
2019-04-30T16:02:02.433Z,14.26
2019-04-30T16:04:45.286Z,14.23
2019-04-30T16:07:11.147Z,14.25
2019-04-30T16:09:42.192Z,14.28
2019-04-30T16:12:09.946Z,14.22
2019-04-30T16:14:37.701Z,14.33
2019-04-30T16:17:08.068Z,14.19
2019-04-30T16:19:33.929Z,14.15
2019-04-30T16:21:59.773Z,14.07
2019-04-30T16:24:25.740Z,14.09
2019-04-30T16:26:52.781Z,14.18
2019-04-30T16:29:18.770Z,14.09
2019-04-30T16:31:44.760Z,13.87
2019-04-30T16:34:10.615Z,13.87
2019-04-30T16:36:36.507Z,13.90
2019-04-30T16:39:05.497Z,14.07
2019-04-30T16:41:32.060Z,13.95
2019-04-30T16:43:59.379Z,13.80
2019-04-30T16:46:26.380Z,13.82
2019-04-30T16:48:53.407Z,13.79
2019-04-30T16:51:19.281Z,13.82
2019-04-30T16:53:45.133Z,13.78
2019-04-30T16:56:10.983Z,13.66
2019-04-30T16:58:55.586Z,13.77
2019-04-30T17:01:21.683Z,13.77
2019-04-30T17:03:50.502Z,13.57
2019-04-30T17:06:20.922Z,13.59
2019-04-30T17:08:49.476Z,13.43
2019-04-30T17:11:17.264Z,13.45
2019-04-30T17:13:54.219Z,13.28
2019-04-30T17:16:21.978Z,13.21
2019-04-30T17:18:49.937Z,13.09
2019-04-30T17:21:15.612Z,13.14
2019-04-30T17:23:41.467Z,13.17
2019-04-30T17:26:07.330Z,13.29
2019-04-30T17:28:33.210Z,13.18
2019-04-30T17:30:59.064Z,13.29
2019-04-30T17:33:24.927Z,13.04
2019-04-30T17:35:50.865Z,12.97
2019-04-30T17:38:16.738Z,13.02
2019-04-30T17:40:42.594Z,12.99
2019-04-30T17:43:08.468Z,13.03
2019-04-30T17:45:34.350Z,12.98
2019-04-30T17:48:00.203Z,12.91
2019-04-30T17:50:26.077Z,12.82
2019-04-30T17:52:51.927Z,12.73
2019-04-30T17:55:19.503Z,12.84
2019-04-30T17:57:45.574Z,12.75
2019-04-30T18:00:18.649Z,12.77
2019-04-30T18:02:41.924Z,12.77
2019-04-30T18:05:09.155Z,12.72
2019-04-30T18:07:35.951Z,12.66
2019-04-30T18:10:05.811Z,12.66
2019-04-30T18:12:31.896Z,12.52
2019-04-30T18:14:57.741Z,12.69
2019-04-30T18:17:24.830Z,12.62
2019-04-30T18:20:10.925Z,12.58
2019-04-30T18:22:48.914Z,12.59
2019-04-30T18:25:22.568Z,12.49
2019-04-30T18:27:52.897Z,12.42
2019-04-30T18:30:21.224Z,12.44
2019-04-30T18:32:48.621Z,12.35
2019-04-30T18:35:14.447Z,12.28
2019-04-30T18:37:40.313Z,12.30
2019-04-30T18:40:06.405Z,12.32
2019-04-30T18:42:32.443Z,12.32
2019-04-30T18:44:58.293Z,12.31
2019-04-30T18:47:24.963Z,12.40
2019-04-30T18:49:50.810Z,12.24
2019-04-30T18:52:18.701Z,12.15
2019-04-30T18:54:44.485Z,12.14
2019-04-30T18:57:10.337Z,12.16
2019-04-30T18:59:36.189Z,12.15
2019-04-30T19:02:04.148Z,12.00
2019-04-30T19:04:30.025Z,11.95
2019-04-30T19:06:57.791Z,11.94
2019-04-30T19:09:25.566Z,11.97
2019-04-30T19:11:53.321Z,11.82
2019-04-30T19:14:21.098Z,11.82
2019-04-30T19:16:59.586Z,11.81
2019-04-30T19:19:40.284Z,11.67
2019-04-30T19:22:06.383Z,11.72
2019-04-30T19:24:32.246Z,11.76
2019-04-30T19:26:58.700Z,11.75
2019-04-30T19:29:24.576Z,11.73
2019-04-30T19:31:50.425Z,11.87
2019-04-30T19:34:16.337Z,11.76
2019-04-30T19:36:42.223Z,11.76
2019-04-30T19:39:09.171Z,11.54
2019-04-30T19:41:35.132Z,11.42
2019-04-30T19:44:01.100Z,11.42
2019-04-30T19:46:26.965Z,11.37
2019-04-30T19:48:52.833Z,11.38
2019-04-30T19:51:19.748Z,11.39
2019-04-30T19:53:45.797Z,11.38
2019-04-30T19:56:11.718Z,11.32
2019-04-30T19:58:50.072Z,11.20
2019-04-30T20:01:05.403Z,11.28
2019-04-30T20:03:31.323Z,11.13
2019-04-30T20:05:58.590Z,11.01
2019-04-30T20:08:24.477Z,11.06
2019-04-30T20:10:50.329Z,11.11
2019-04-30T20:13:30.905Z,11.12
2019-04-30T20:15:43.944Z,11.20
2019-04-30T20:18:09.829Z,11.04
2019-04-30T20:20:39.732Z,11.24
2019-04-30T20:23:05.369Z,11.24
2019-04-30T20:25:31.260Z,11.20
2019-04-30T20:27:57.128Z,11.20
2019-04-30T20:30:22.989Z,11.16
2019-04-30T20:32:49.097Z,11.21
2019-04-30T20:35:16.669Z,11.13
2019-04-30T20:38:00.873Z,11.06
2019-04-30T20:40:33.307Z,10.94
2019-04-30T20:42:58.211Z,10.80
2019-04-30T20:45:24.202Z,10.69
2019-04-30T20:47:50.064Z,10.65
2019-04-30T20:50:16.055Z,10.63
2019-04-30T20:55:22.132Z,10.71
2019-04-30T20:57:49.469Z,10.61
2019-04-30T21:00:15.970Z,10.48
2019-04-30T21:02:41.846Z,10.50
2019-04-30T21:05:07.928Z,10.52
2019-04-30T21:07:34.717Z,10.41
2019-04-30T21:10:00.676Z,10.37
2019-04-30T21:12:28.694Z,10.28
2019-04-30T21:14:54.301Z,10.19
2019-04-30T21:17:20.159Z,10.16
2019-04-30T21:19:46.013Z,10.16
2019-04-30T21:22:11.869Z,10.15
2019-04-30T21:24:37.751Z,10.15
2019-04-30T21:27:03.622Z,10.07
2019-04-30T21:29:29.631Z,10.19
2019-04-30T21:32:15.596Z,10.10
2019-04-30T21:34:52.516Z,10.08
2019-04-30T21:37:18.412Z,10.11
2019-04-30T21:39:44.344Z,10.02
2019-04-30T21:42:10.193Z,10.04
2019-04-30T21:44:36.054Z,9.95
2019-04-30T21:47:01.913Z,9.82
2019-04-30T21:49:27.848Z,9.74
2019-04-30T21:51:53.708Z,9.68
2019-04-30T21:54:19.568Z,9.64
2019-04-30T21:56:45.442Z,9.61
2019-04-30T21:59:23.557Z,9.69
2019-04-30T22:01:39.762Z,9.66
2019-04-30T22:04:05.633Z,9.62
2019-04-30T22:06:31.482Z,9.67
2019-04-30T22:08:58.572Z,9.60
2019-04-30T22:11:24.539Z,9.55
2019-04-30T22:13:50.388Z,9.49
2019-04-30T22:16:16.351Z,9.38
2019-04-30T22:18:44.224Z,9.30
2019-04-30T22:21:10.182Z,9.09
2019-04-30T22:23:36.119Z,9.18
2019-04-30T22:26:02.281Z,9.22
2019-04-30T22:28:28.134Z,9.26
2019-04-30T22:30:53.985Z,9.26
2019-04-30T22:33:19.851Z,9.16
2019-04-30T22:35:56.218Z,8.99
2019-04-30T22:38:23.977Z,9.02
2019-04-30T22:40:49.817Z,9.06
2019-04-30T22:43:15.671Z,9.05
2019-04-30T22:45:43.428Z,9.06
2019-04-30T22:48:09.282Z,8.98
2019-04-30T22:50:35.296Z,8.93
2019-04-30T22:53:01.165Z,8.79
2019-04-30T22:55:27.022Z,8.75
2019-04-30T22:57:52.896Z,8.87
2019-04-30T23:00:32.774Z,8.94
2019-04-30T23:03:03.271Z,8.73
2019-04-30T23:05:29.133Z,8.64
2019-04-30T23:07:55.007Z,8.68
2019-04-30T23:10:20.883Z,8.70
2019-04-30T23:12:46.739Z,8.62
2019-04-30T23:15:15.109Z,8.63
2019-04-30T23:17:41.003Z,8.64
2019-04-30T23:20:07.462Z,8.56
2019-04-30T23:22:33.314Z,8.49
2019-04-30T23:24:59.207Z,8.59
2019-04-30T23:27:25.063Z,8.50
2019-04-30T23:30:02.828Z,8.39
2019-04-30T23:32:18.682Z,8.37
2019-04-30T23:34:44.563Z,8.36
2019-04-30T23:37:10.458Z,8.29
2019-04-30T23:39:36.354Z,8.30
2019-04-30T23:42:02.182Z,8.26
2019-04-30T23:44:28.039Z,8.16
2019-04-30T23:46:53.911Z,8.11
2019-04-30T23:49:19.804Z,8.12
2019-04-30T23:51:45.661Z,8.01
2019-04-30T23:54:11.520Z,8.03
2019-04-30T23:56:37.382Z,7.96
2019-04-30T23:59:03.337Z,7.96
